sensor_id;sensor_type;location;lat;lon;timestamp;temperature;humidity
23556;DHT22;11956;53.184;8.578;2023-09-30T09:53:20;28.50;96.20
23556;DHT22;11956;53.184;8.578;2023-09-30T10:00:50;27.00;98.10
23556;DHT22;11956;53.184;8.578;2023-09-30T10:03:58;27.30;97.70
23556;DHT22;11956;53.184;8.578;2023-09-30T10:07:29;27.30;97.80
23556;DHT22;11956;53.184;8.578;2023-09-30T10:10:59;26.90;98.10
23556;DHT22;11956;53.184;8.578;2023-09-30T10:19:12;26.80;98.20
23556;DHT22;11956;53.184;8.578;2023-09-30T10:22:26;27.00;98.00
23556;DHT22;11956;53.184;8.578;2023-09-30T10:25:45;27.30;97.10
23556;DHT22;11956;53.184;8.578;2023-09-30T10:28:50;27.40;97.10
23556;DHT22;11956;53.184;8.578;2023-09-30T10:31:52;26.80;97.90
23556;DHT22;11956;53.184;8.578;2023-09-30T10:34:55;26.00;98.70
23556;DHT22;11956;53.184;8.578;2023-09-30T11:04:52;21.50;99.90
23556;DHT22;11956;53.184;8.578;2023-09-30T11:12:36;21.10;99.90
23556;DHT22;11956;53.184;8.578;2023-09-30T11:57:20;21.20;99.90
23556;DHT22;11956;53.184;8.578;2023-09-30T12:02:11;21.10;99.90
23556;DHT22;11956;53.184;8.578;2023-09-30T12:05:48;20.80;99.90
23556;DHT22;11956;53.184;8.578;2023-09-30T12:09:03;20.70;99.90
23556;DHT22;11956;53.184;8.578;2023-09-30T12:13:16;20.60;99.90
23556;DHT22;11956;53.184;8.578;2023-09-30T12:16:49;20.30;99.90
23556;DHT22;11956;53.184;8.578;2023-09-30T12:24:58;20.50;99.90
23556;DHT22;11956;53.184;8.578;2023-09-30T12:28:07;20.30;99.90
23556;DHT22;11956;53.184;8.578;2023-09-30T12:31:22;20.20;99.90
23556;DHT22;11956;53.184;8.578;2023-09-30T12:34:48;20.10;99.90
23556;DHT22;11956;53.184;8.578;2023-09-30T12:38:54;20.00;99.90
23556;DHT22;11956;53.184;8.578;2023-09-30T12:46:55;20.00;99.90
23556;DHT22;11956;53.184;8.578;2023-09-30T12:54:24;19.80;99.90
23556;DHT22;11956;53.184;8.578;2023-09-30T12:58:01;19.80;99.90
23556;DHT22;11956;53.184;8.578;2023-09-30T13:01:52;20.00;99.90
23556;DHT22;11956;53.184;8.578;2023-09-30T13:09:31;20.20;99.90
23556;DHT22;11956;53.184;8.578;2023-09-30T13:12:35;20.10;99.90
23556;DHT22;11956;53.184;8.578;2023-09-30T13:16:30;20.00;99.90
23556;DHT22;11956;53.184;8.578;2023-09-30T13:20:02;19.90;99.90
23556;DHT22;11956;53.184;8.578;2023-09-30T13:23:51;19.90;99.90
23556;DHT22;11956;53.184;8.578;2023-09-30T13:27:25;19.80;99.90
23556;DHT22;11956;53.184;8.578;2023-09-30T13:31:15;19.80;99.90
23556;DHT22;11956;53.184;8.578;2023-09-30T13:35:32;19.70;99.90
23556;DHT22;11956;53.184;8.578;2023-09-30T14:09:48;19.30;99.90
23556;DHT22;11956;53.184;8.578;2023-09-30T14:14:17;19.30;99.90
23556;DHT22;11956;53.184;8.578;2023-09-30T14:17:42;19.30;99.90
23556;DHT22;11956;53.184;8.578;2023-09-30T14:21:02;19.10;99.90
23556;DHT22;11956;53.184;8.578;2023-09-30T14:24:15;19.00;99.90
23556;DHT22;11956;53.184;8.578;2023-09-30T14:27:28;19.00;99.90
23556;DHT22;11956;53.184;8.578;2023-09-30T14:35:08;19.40;99.90
23556;DHT22;11956;53.184;8.578;2023-09-30T14:39:04;19.60;99.90
23556;DHT22;11956;53.184;8.578;2023-09-30T14:42:51;19.70;99.90
23556;DHT22;11956;53.184;8.578;2023-09-30T14:46:09;19.70;99.90
23556;DHT22;11956;53.184;8.578;2023-09-30T14:49:57;19.80;99.90
23556;DHT22;11956;53.184;8.578;2023-09-30T14:53:54;19.70;99.90
23556;DHT22;11956;53.184;8.578;2023-09-30T15:02:22;19.70;99.90
23556;DHT22;11956;53.184;8.578;2023-09-30T15:05:35;19.70;99.90
23556;DHT22;11956;53.184;8.578;2023-09-30T15:08:59;19.50;99.90
23556;DHT22;11956;53.184;8.578;2023-09-30T15:13:02;19.30;99.90
23556;DHT22;11956;53.184;8.578;2023-09-30T15:16:46;19.30;99.90
23556;DHT22;11956;53.184;8.578;2023-09-30T15:20:01;19.20;99.90
23556;DHT22;11956;53.184;8.578;2023-09-30T15:23:09;19.10;99.90
23556;DHT22;11956;53.184;8.578;2023-09-30T15:26:57;18.90;99.90
23556;DHT22;11956;53.184;8.578;2023-09-30T15:30:08;19.00;99.90
23556;DHT22;11956;53.184;8.578;2023-09-30T15:33:29;18.90;99.90
23556;DHT22;11956;53.184;8.578;2023-09-30T15:36:42;18.90;99.90
23556;DHT22;11956;53.184;8.578;2023-09-30T15:39:48;18.90;99.90
23556;DHT22;11956;53.184;8.578;2023-09-30T15:42:55;19.00;99.90
23556;DHT22;11956;53.184;8.578;2023-09-30T15:46:01;18.90;99.90
23556;DHT22;11956;53.184;8.578;2023-09-30T15:53:14;18.90;99.90
23556;DHT22;11956;53.184;8.578;2023-09-30T15:57:26;18.90;99.90
23556;DHT22;11956;53.184;8.578;2023-09-30T16:00:48;18.90;99.90
23556;DHT22;11956;53.184;8.578;2023-09-30T16:25:01;18.20;99.90
23556;DHT22;11956;53.184;8.578;2023-09-30T16:28:51;18.10;99.90
23556;DHT22;11956;53.184;8.578;2023-09-30T16:32:39;18.00;99.90
23556;DHT22;11956;53.184;8.578;2023-09-30T16:36:51;17.90;99.90
23556;DHT22;11956;53.184;8.578;2023-09-30T16:45:26;17.60;99.90
23556;DHT22;11956;53.184;8.578;2023-09-30T16:49:03;17.50;99.90
23556;DHT22;11956;53.184;8.578;2023-09-30T16:52:35;17.40;99.90
23556;DHT22;11956;53.184;8.578;2023-09-30T17:39:39;16.50;99.90
23556;DHT22;11956;53.184;8.578;2023-09-30T17:43:48;16.40;99.90
23556;DHT22;11956;53.184;8.578;2023-09-30T17:51:47;16.20;99.90
23556;DHT22;11956;53.184;8.578;2023-09-30T17:55:40;16.20;99.90
23556;DHT22;11956;53.184;8.578;2023-09-30T18:07:54;16.10;99.90
23556;DHT22;11956;53.184;8.578;2023-09-30T18:11:42;16.00;99.90
23556;DHT22;11956;53.184;8.578;2023-09-30T18:15:14;16.00;99.90
23556;DHT22;11956;53.184;8.578;2023-09-30T18:19:42;16.00;99.90
23556;DHT22;11956;53.184;8.578;2023-09-30T18:23:18;15.90;99.90
23556;DHT22;11956;53.184;8.578;2023-09-30T18:34:28;15.90;99.90
23556;DHT22;11956;53.184;8.578;2023-09-30T18:43:59;15.80;99.90
23556;DHT22;11956;53.184;8.578;2023-09-30T18:50:42;15.70;99.90
23556;DHT22;11956;53.184;8.578;2023-09-30T18:59:09;15.70;99.90
